createdAt,value
2019-02-19T00:06:07.230Z,6
2019-02-19T00:16:13.636Z,4
2019-02-19T00:26:21.650Z,5
2019-02-19T00:36:30.594Z,5
2019-02-19T00:46:39.202Z,4
2019-02-19T00:56:45.166Z,4
2019-02-19T01:06:53.270Z,3
2019-02-19T01:17:00.964Z,3
2019-02-19T01:27:07.512Z,5
2019-02-19T01:37:14.273Z,5
2019-02-19T01:47:21.693Z,4
2019-02-19T01:57:29.013Z,3
2019-02-19T02:07:37.557Z,4
2019-02-19T02:17:44.990Z,3
2019-02-19T02:27:52.376Z,5
2019-02-19T02:38:00.019Z,5
2019-02-19T02:48:08.527Z,5
2019-02-19T02:58:15.854Z,4
2019-02-19T03:08:23.854Z,5
2019-02-19T03:16:41.960Z,5
2019-02-19T03:26:50.329Z,4
2019-02-19T03:36:57.976Z,3
2019-02-19T03:47:06.779Z,5
2019-02-19T03:57:14.675Z,4
2019-02-19T04:07:21.903Z,3
2019-02-19T04:17:30.012Z,3
2019-02-19T04:27:39.104Z,4
2019-02-19T04:37:45.906Z,4
2019-02-19T04:47:04.984Z,5
2019-02-19T04:57:12.336Z,3
2019-02-19T05:07:19.741Z,3
2019-02-19T05:17:27.082Z,4
2019-02-19T05:27:36.351Z,5
2019-02-19T05:37:43.921Z,4
2019-02-19T05:47:51.850Z,4
2019-02-19T05:57:59.493Z,4
2019-02-19T06:08:05.441Z,5
2019-02-19T06:18:15.621Z,6
2019-02-19T06:28:22.311Z,4
2019-02-19T06:38:29.171Z,4
2019-02-19T06:47:46.229Z,4
2019-02-19T06:57:53.308Z,4
2019-02-19T07:08:02.478Z,4
2019-02-19T07:11:19.950Z,4
2019-02-19T07:13:47.085Z,3
2019-02-19T07:23:52.451Z,4
2019-02-19T07:24:39.322Z,4
2019-02-19T07:34:44.686Z,3
2019-02-19T07:44:57.585Z,6
2019-02-19T07:55:08.714Z,4
2019-02-19T08:05:15.003Z,3
2019-02-19T08:15:23.967Z,5
2019-02-19T08:25:10.220Z,5
2019-02-19T08:32:01.057Z,14
2019-02-19T08:34:29.193Z,5
2019-02-19T08:35:38.431Z,3
2019-02-19T08:45:51.415Z,3
2019-02-19T08:49:04.434Z,4
2019-02-19T08:58:26.962Z,4
2019-02-19T09:03:45.520Z,4
2019-02-19T09:04:53.116Z,3
2019-02-19T09:15:02.250Z,3
2019-02-19T09:20:12.678Z,7
2019-02-19T09:22:25.844Z,4
2019-02-19T09:32:33.629Z,4
2019-02-19T09:39:16.880Z,4
2019-02-19T09:40:29.942Z,5
2019-02-19T09:44:50.709Z,4
2019-02-19T09:48:02.058Z,5
2019-02-19T09:54:06.628Z,7
2019-02-19T10:04:14.336Z,4
2019-02-19T10:14:22.053Z,4
2019-02-19T10:24:31.468Z,5
2019-02-19T10:25:49.123Z,7
2019-02-19T10:35:52.750Z,8
2019-02-19T10:46:01.180Z,9
2019-02-19T10:48:19.964Z,52
2019-02-19T10:51:33.495Z,36
2019-02-19T11:01:42.865Z,15
2019-02-19T11:08:04.930Z,14
2019-02-19T11:09:17.506Z,10
2019-02-19T11:12:32.198Z,7
2019-02-19T11:22:36.097Z,14
2019-02-19T11:32:58.698Z,12
2019-02-19T11:34:09.351Z,8
2019-02-19T11:37:21.426Z,13
2019-02-19T11:47:30.108Z,8
2019-02-19T11:57:50.600Z,6
2019-02-19T12:02:05.367Z,8
2019-02-19T12:12:16.255Z,7
2019-02-19T12:22:25.683Z,7
2019-02-19T12:31:48.493Z,9
2019-02-19T12:32:59.590Z,8
2019-02-19T12:35:41.348Z,8
2019-02-19T12:45:48.360Z,7
2019-02-19T12:52:05.829Z,7
2019-02-19T12:56:29.990Z,8
2019-02-19T13:06:35.866Z,7
2019-02-19T13:08:53.624Z,6
2019-02-19T13:19:04.034Z,7
2019-02-19T13:19:41.074Z,8
2019-02-19T13:25:49.330Z,8
2019-02-19T13:33:05.747Z,9
2019-02-19T13:43:13.299Z,6
2019-02-19T13:53:28.952Z,7
2019-02-19T14:03:34.854Z,6
2019-02-19T14:04:46.933Z,8
2019-02-19T14:11:30.395Z,7
2019-02-19T14:19:58.516Z,7
2019-02-19T14:30:07.777Z,7
2019-02-19T14:40:15.003Z,12
2019-02-19T14:47:37.519Z,7
2019-02-19T14:57:43.631Z,7
2019-02-19T15:06:03.666Z,8
2019-02-19T15:16:10.017Z,7
2019-02-19T15:26:23.051Z,14
2019-02-19T15:36:25.040Z,12
2019-02-19T15:46:38.729Z,7
2019-02-19T15:56:55.384Z,7
2019-02-19T16:07:03.723Z,9
2019-02-19T16:17:14.615Z,14
2019-02-19T16:18:54.291Z,15
2019-02-19T16:29:36.031Z,9
2019-02-19T16:39:43.330Z,7
2019-02-19T16:45:56.736Z,8
2019-02-19T16:50:15.394Z,8
2019-02-19T16:59:49.681Z,12
2019-02-19T17:06:47.518Z,9
2019-02-19T17:16:51.472Z,11
2019-02-19T17:21:08.195Z,15
2019-02-19T17:31:15.903Z,19
2019-02-19T17:41:24.336Z,11
2019-02-19T17:45:05.077Z,20
2019-02-19T17:55:15.337Z,10
2019-02-19T18:05:22.932Z,15
2019-02-19T18:12:44.398Z,20
2019-02-19T18:22:46.373Z,11
2019-02-19T18:26:16.297Z,8
2019-02-19T18:27:25.967Z,8
2019-02-19T18:30:45.208Z,10
2019-02-19T18:40:46.831Z,22
2019-02-19T18:50:59.342Z,14
2019-02-19T19:01:02.204Z,13
2019-02-19T19:11:11.295Z,19
2019-02-19T19:21:18.765Z,9
2019-02-19T19:31:34.288Z,12
2019-02-19T19:41:36.380Z,13
2019-02-19T19:51:56.539Z,11
2019-02-19T20:02:05.809Z,14
2019-02-19T20:12:12.556Z,12
2019-02-19T20:22:21.111Z,11
2019-02-19T20:32:29.851Z,12
2019-02-19T20:42:36.961Z,14
2019-02-19T20:52:44.169Z,22
2019-02-19T21:02:51.342Z,52
2019-02-19T21:13:02.051Z,31
2019-02-19T21:22:19.480Z,11
2019-02-19T21:32:26.095Z,12
2019-02-19T21:42:37.092Z,29
2019-02-19T21:52:42.543Z,43
2019-02-19T22:02:50.748Z,22
2019-02-19T22:12:57.670Z,29
2019-02-19T22:23:05.144Z,45
2019-02-19T22:33:13.557Z,20
2019-02-19T22:41:33.376Z,33
2019-02-19T22:51:40.228Z,29
2019-02-19T23:01:53.947Z,12
2019-02-19T23:12:00.628Z,10
2019-02-19T23:22:08.655Z,12
2019-02-19T23:32:14.934Z,15
2019-02-19T23:42:23.395Z,13
2019-02-19T23:52:31.094Z,14
